sensor_id;sensor_type;location;lat;lon;timestamp;temperature;humidity
35531;DHT22;21637;53.352;-6.356;2023-11-21T00:00:13;8.00;99.90
35531;DHT22;21637;53.352;-6.356;2023-11-21T00:02:39;8.00;99.90
35531;DHT22;21637;53.352;-6.356;2023-11-21T00:05:08;8.00;99.90
35531;DHT22;21637;53.352;-6.356;2023-11-21T00:07:34;8.00;99.90
35531;DHT22;21637;53.352;-6.356;2023-11-21T00:09:59;8.00;99.90
35531;DHT22;21637;53.352;-6.356;2023-11-21T00:12:25;8.00;99.90
35531;DHT22;21637;53.352;-6.356;2023-11-21T00:14:51;8.00;99.90
35531;DHT22;21637;53.352;-6.356;2023-11-21T00:17:16;8.00;99.90
35531;DHT22;21637;53.352;-6.356;2023-11-21T00:19:42;8.00;99.90
35531;DHT22;21637;53.352;-6.356;2023-11-21T00:22:08;8.00;99.90
35531;DHT22;21637;53.352;-6.356;2023-11-21T00:24:34;7.90;99.90
35531;DHT22;21637;53.352;-6.356;2023-11-21T00:27:00;7.90;99.90
35531;DHT22;21637;53.352;-6.356;2023-11-21T00:29:26;7.90;99.90
35531;DHT22;21637;53.352;-6.356;2023-11-21T00:31:52;7.90;99.90
35531;DHT22;21637;53.352;-6.356;2023-11-21T00:34:18;7.80;99.90
35531;DHT22;21637;53.352;-6.356;2023-11-21T00:36:45;7.80;99.90
35531;DHT22;21637;53.352;-6.356;2023-11-21T00:39:10;7.80;99.90
35531;DHT22;21637;53.352;-6.356;2023-11-21T00:41:37;7.80;99.90
35531;DHT22;21637;53.352;-6.356;2023-11-21T00:44:03;7.70;99.90
35531;DHT22;21637;53.352;-6.356;2023-11-21T00:46:29;7.70;99.90
35531;DHT22;21637;53.352;-6.356;2023-11-21T00:48:55;7.70;99.90
35531;DHT22;21637;53.352;-6.356;2023-11-21T00:51:22;7.70;99.90
35531;DHT22;21637;53.352;-6.356;2023-11-21T00:53:48;7.70;99.90
35531;DHT22;21637;53.352;-6.356;2023-11-21T00:56:14;7.60;99.90
35531;DHT22;21637;53.352;-6.356;2023-11-21T00:58:40;7.60;99.90
35531;DHT22;21637;53.352;-6.356;2023-11-21T01:01:09;7.60;99.90
35531;DHT22;21637;53.352;-6.356;2023-11-21T01:03:35;7.60;99.90
35531;DHT22;21637;53.352;-6.356;2023-11-21T01:06:01;7.60;99.90
35531;DHT22;21637;53.352;-6.356;2023-11-21T01:08:26;7.50;99.90
35531;DHT22;21637;53.352;-6.356;2023-11-21T01:10:52;7.50;99.90
35531;DHT22;21637;53.352;-6.356;2023-11-21T01:13:18;7.50;99.90
35531;DHT22;21637;53.352;-6.356;2023-11-21T01:15:44;7.50;99.90
35531;DHT22;21637;53.352;-6.356;2023-11-21T01:18:09;7.50;99.90
35531;DHT22;21637;53.352;-6.356;2023-11-21T01:20:35;7.50;99.90
35531;DHT22;21637;53.352;-6.356;2023-11-21T01:23:01;7.50;99.90
35531;DHT22;21637;53.352;-6.356;2023-11-21T01:25:26;7.50;99.90
35531;DHT22;21637;53.352;-6.356;2023-11-21T01:27:52;7.50;99.90
35531;DHT22;21637;53.352;-6.356;2023-11-21T01:30:18;7.50;99.90
35531;DHT22;21637;53.352;-6.356;2023-11-21T01:32:44;7.50;99.90
35531;DHT22;21637;53.352;-6.356;2023-11-21T01:35:10;7.50;99.90
35531;DHT22;21637;53.352;-6.356;2023-11-21T01:37:39;7.50;99.90
35531;DHT22;21637;53.352;-6.356;2023-11-21T01:40:05;7.40;99.90
35531;DHT22;21637;53.352;-6.356;2023-11-21T01:42:35;7.40;99.90
35531;DHT22;21637;53.352;-6.356;2023-11-21T01:45:01;7.30;99.90
35531;DHT22;21637;53.352;-6.356;2023-11-21T01:47:31;7.30;99.90
35531;DHT22;21637;53.352;-6.356;2023-11-21T01:49:57;7.20;99.90
35531;DHT22;21637;53.352;-6.356;2023-11-21T01:52:23;7.10;99.90
35531;DHT22;21637;53.352;-6.356;2023-11-21T01:54:50;7.20;99.90
35531;DHT22;21637;53.352;-6.356;2023-11-21T01:57:16;7.10;99.90
35531;DHT22;21637;53.352;-6.356;2023-11-21T01:59:42;7.10;99.90
35531;DHT22;21637;53.352;-6.356;2023-11-21T02:02:10;7.10;99.90
35531;DHT22;21637;53.352;-6.356;2023-11-21T02:04:36;7.10;99.90
35531;DHT22;21637;53.352;-6.356;2023-11-21T02:07:03;7.10;99.90
35531;DHT22;21637;53.352;-6.356;2023-11-21T02:09:32;7.00;99.90
35531;DHT22;21637;53.352;-6.356;2023-11-21T02:11:59;6.90;99.90
35531;DHT22;21637;53.352;-6.356;2023-11-21T02:14:26;6.90;99.90
35531;DHT22;21637;53.352;-6.356;2023-11-21T02:16:53;6.80;99.90
35531;DHT22;21637;53.352;-6.356;2023-11-21T02:19:20;6.80;99.90
35531;DHT22;21637;53.352;-6.356;2023-11-21T02:21:50;6.80;99.90
35531;DHT22;21637;53.352;-6.356;2023-11-21T02:24:19;6.70;99.90
35531;DHT22;21637;53.352;-6.356;2023-11-21T02:26:45;6.70;99.90
35531;DHT22;21637;53.352;-6.356;2023-11-21T02:29:11;6.70;99.90
35531;DHT22;21637;53.352;-6.356;2023-11-21T02:31:39;6.70;99.90
35531;DHT22;21637;53.352;-6.356;2023-11-21T02:34:14;6.70;99.90
35531;DHT22;21637;53.352;-6.356;2023-11-21T02:36:40;6.70;99.90
35531;DHT22;21637;53.352;-6.356;2023-11-21T02:39:08;6.70;99.90
35531;DHT22;21637;53.352;-6.356;2023-11-21T02:41:33;6.70;99.90
35531;DHT22;21637;53.352;-6.356;2023-11-21T02:44:00;6.70;99.90
35531;DHT22;21637;53.352;-6.356;2023-11-21T02:46:26;6.70;99.90
35531;DHT22;21637;53.352;-6.356;2023-11-21T02:48:52;6.70;99.90
35531;DHT22;21637;53.352;-6.356;2023-11-21T02:51:20;6.70;99.90
35531;DHT22;21637;53.352;-6.356;2023-11-21T02:53:46;6.70;99.90
35531;DHT22;21637;53.352;-6.356;2023-11-21T02:56:12;6.70;99.90
35531;DHT22;21637;53.352;-6.356;2023-11-21T02:58:41;6.70;99.90
35531;DHT22;21637;53.352;-6.356;2023-11-21T03:01:09;6.60;99.90
35531;DHT22;21637;53.352;-6.356;2023-11-21T03:03:36;6.60;99.90
35531;DHT22;21637;53.352;-6.356;2023-11-21T03:06:06;6.60;99.90
35531;DHT22;21637;53.352;-6.356;2023-11-21T03:08:32;6.50;99.90
35531;DHT22;21637;53.352;-6.356;2023-11-21T03:10:58;6.50;99.90
35531;DHT22;21637;53.352;-6.356;2023-11-21T03:13:24;6.50;99.90
35531;DHT22;21637;53.352;-6.356;2023-11-21T03:15:50;6.50;99.90
35531;DHT22;21637;53.352;-6.356;2023-11-21T03:18:16;6.60;99.90
35531;DHT22;21637;53.352;-6.356;2023-11-21T03:20:43;6.50;99.90
35531;DHT22;21637;53.352;-6.356;2023-11-21T03:23:11;6.50;99.90
35531;DHT22;21637;53.352;-6.356;2023-11-21T03:25:37;6.50;99.90
35531;DHT22;21637;53.352;-6.356;2023-11-21T03:28:03;6.50;99.90
35531;DHT22;21637;53.352;-6.356;2023-11-21T03:30:29;6.50;99.90
35531;DHT22;21637;53.352;-6.356;2023-11-21T03:32:54;6.50;99.90
35531;DHT22;21637;53.352;-6.356;2023-11-21T03:35:20;6.50;99.90
35531;DHT22;21637;53.352;-6.356;2023-11-21T03:37:47;6.50;99.90
35531;DHT22;21637;53.352;-6.356;2023-11-21T03:40:12;6.50;99.90
35531;DHT22;21637;53.352;-6.356;2023-11-21T03:42:39;6.50;99.90
35531;DHT22;21637;53.352;-6.356;2023-11-21T03:45:05;6.50;99.90
35531;DHT22;21637;53.352;-6.356;2023-11-21T03:47:31;6.50;99.90
35531;DHT22;21637;53.352;-6.356;2023-11-21T03:49:57;6.50;99.90
35531;DHT22;21637;53.352;-6.356;2023-11-21T03:52:24;6.40;99.90
35531;DHT22;21637;53.352;-6.356;2023-11-21T03:54:50;6.40;99.90
35531;DHT22;21637;53.352;-6.356;2023-11-21T03:57:16;6.30;99.90
35531;DHT22;21637;53.352;-6.356;2023-11-21T03:59:42;6.30;99.90
35531;DHT22;21637;53.352;-6.356;2023-11-21T04:02:09;6.30;99.90
35531;DHT22;21637;53.352;-6.356;2023-11-21T04:04:35;6.30;99.90
35531;DHT22;21637;53.352;-6.356;2023-11-21T04:07:01;6.30;99.90
35531;DHT22;21637;53.352;-6.356;2023-11-21T04:09:27;6.20;99.90
35531;DHT22;21637;53.352;-6.356;2023-11-21T04:11:53;6.20;99.90
35531;DHT22;21637;53.352;-6.356;2023-11-21T04:14:19;6.20;99.90
35531;DHT22;21637;53.352;-6.356;2023-11-21T04:16:45;6.20;99.90
35531;DHT22;21637;53.352;-6.356;2023-11-21T04:19:11;6.20;99.90
35531;DHT22;21637;53.352;-6.356;2023-11-21T04:21:40;6.20;99.90
35531;DHT22;21637;53.352;-6.356;2023-11-21T04:24:07;6.20;99.90
35531;DHT22;21637;53.352;-6.356;2023-11-21T04:26:32;6.10;99.90
35531;DHT22;21637;53.352;-6.356;2023-11-21T04:28:58;6.10;99.90
35531;DHT22;21637;53.352;-6.356;2023-11-21T04:31:24;6.10;99.90
35531;DHT22;21637;53.352;-6.356;2023-11-21T04:33:50;6.00;99.90
35531;DHT22;21637;53.352;-6.356;2023-11-21T04:36:15;6.00;99.90
35531;DHT22;21637;53.352;-6.356;2023-11-21T04:38:41;5.90;99.90
35531;DHT22;21637;53.352;-6.356;2023-11-21T04:41:08;5.90;99.90
35531;DHT22;21637;53.352;-6.356;2023-11-21T04:43:33;5.90;99.90
35531;DHT22;21637;53.352;-6.356;2023-11-21T04:45:59;5.90;99.90
35531;DHT22;21637;53.352;-6.356;2023-11-21T04:48:25;5.90;99.90
35531;DHT22;21637;53.352;-6.356;2023-11-21T04:50:51;5.90;99.90
35531;DHT22;21637;53.352;-6.356;2023-11-21T04:53:17;5.80;99.90
35531;DHT22;21637;53.352;-6.356;2023-11-21T04:55:43;5.80;99.90
35531;DHT22;21637;53.352;-6.356;2023-11-21T04:58:09;5.80;99.90
35531;DHT22;21637;53.352;-6.356;2023-11-21T05:00:36;5.80;99.90
35531;DHT22;21637;53.352;-6.356;2023-11-21T05:03:02;5.80;99.90
35531;DHT22;21637;53.352;-6.356;2023-11-21T05:05:29;5.80;99.90
35531;DHT22;21637;53.352;-6.356;2023-11-21T05:07:57;5.80;99.90
35531;DHT22;21637;53.352;-6.356;2023-11-21T05:10:23;5.80;99.90
35531;DHT22;21637;53.352;-6.356;2023-11-21T05:12:49;5.80;99.90
35531;DHT22;21637;53.352;-6.356;2023-11-21T05:15:16;5.80;99.90
35531;DHT22;21637;53.352;-6.356;2023-11-21T05:17:43;5.80;99.90
35531;DHT22;21637;53.352;-6.356;2023-11-21T05:20:11;5.80;99.90
35531;DHT22;21637;53.352;-6.356;2023-11-21T05:22:37;5.80;99.90
35531;DHT22;21637;53.352;-6.356;2023-11-21T05:25:04;5.80;99.90
35531;DHT22;21637;53.352;-6.356;2023-11-21T05:27:30;5.80;99.90
35531;DHT22;21637;53.352;-6.356;2023-11-21T05:29:59;5.80;99.90
35531;DHT22;21637;53.352;-6.356;2023-11-21T05:32:25;5.80;99.90
35531;DHT22;21637;53.352;-6.356;2023-11-21T05:34:51;5.90;99.90
35531;DHT22;21637;53.352;-6.356;2023-11-21T05:37:17;5.90;99.90
35531;DHT22;21637;53.352;-6.356;2023-11-21T05:39:43;5.90;99.90
35531;DHT22;21637;53.352;-6.356;2023-11-21T05:42:09;5.90;99.90
35531;DHT22;21637;53.352;-6.356;2023-11-21T05:44:40;5.80;99.90
35531;DHT22;21637;53.352;-6.356;2023-11-21T05:47:06;5.80;99.90
35531;DHT22;21637;53.352;-6.356;2023-11-21T05:49:33;5.70;99.90
35531;DHT22;21637;53.352;-6.356;2023-11-21T05:52:00;5.70;99.90
35531;DHT22;21637;53.352;-6.356;2023-11-21T05:54:26;5.70;99.90
35531;DHT22;21637;53.352;-6.356;2023-11-21T05:56:51;5.70;99.90
35531;DHT22;21637;53.352;-6.356;2023-11-21T05:59:18;5.70;99.90
35531;DHT22;21637;53.352;-6.356;2023-11-21T06:01:46;5.70;99.90
35531;DHT22;21637;53.352;-6.356;2023-11-21T06:04:12;5.60;99.90
35531;DHT22;21637;53.352;-6.356;2023-11-21T06:06:38;5.70;99.90
35531;DHT22;21637;53.352;-6.356;2023-11-21T06:09:04;5.70;99.90
35531;DHT22;21637;53.352;-6.356;2023-11-21T06:11:31;5.70;99.90
35531;DHT22;21637;53.352;-6.356;2023-11-21T06:13:57;5.70;99.90
35531;DHT22;21637;53.352;-6.356;2023-11-21T06:16:23;5.70;99.90
35531;DHT22;21637;53.352;-6.356;2023-11-21T06:18:49;5.70;99.90
35531;DHT22;21637;53.352;-6.356;2023-11-21T06:21:15;5.70;99.90
35531;DHT22;21637;53.352;-6.356;2023-11-21T06:23:42;5.70;99.90
35531;DHT22;21637;53.352;-6.356;2023-11-21T06:26:08;5.70;99.90
35531;DHT22;21637;53.352;-6.356;2023-11-21T06:28:35;5.60;99.90
35531;DHT22;21637;53.352;-6.356;2023-11-21T06:31:02;5.70;99.90
35531;DHT22;21637;53.352;-6.356;2023-11-21T06:33:33;5.70;99.90
35531;DHT22;21637;53.352;-6.356;2023-11-21T06:35:59;5.70;99.90
35531;DHT22;21637;53.352;-6.356;2023-11-21T06:38:25;5.70;99.90
35531;DHT22;21637;53.352;-6.356;2023-11-21T06:40:53;5.80;99.90
35531;DHT22;21637;53.352;-6.356;2023-11-21T06:43:20;5.70;99.90
35531;DHT22;21637;53.352;-6.356;2023-11-21T06:45:47;5.70;99.90
35531;DHT22;21637;53.352;-6.356;2023-11-21T06:48:13;5.70;99.90
35531;DHT22;21637;53.352;-6.356;2023-11-21T06:50:39;5.70;99.90
35531;DHT22;21637;53.352;-6.356;2023-11-21T06:53:04;5.70;99.90
35531;DHT22;21637;53.352;-6.356;2023-11-21T06:55:33;5.70;99.90
35531;DHT22;21637;53.352;-6.356;2023-11-21T06:57:58;5.60;99.90
35531;DHT22;21637;53.352;-6.356;2023-11-21T07:00:26;5.60;99.90
35531;DHT22;21637;53.352;-6.356;2023-11-21T07:02:54;5.60;99.90
35531;DHT22;21637;53.352;-6.356;2023-11-21T07:05:21;5.60;99.90
35531;DHT22;21637;53.352;-6.356;2023-11-21T07:07:48;5.60;99.90
35531;DHT22;21637;53.352;-6.356;2023-11-21T07:10:14;5.60;99.90
35531;DHT22;21637;53.352;-6.356;2023-11-21T07:12:41;5.60;99.90
35531;DHT22;21637;53.352;-6.356;2023-11-21T07:15:07;5.60;99.90
35531;DHT22;21637;53.352;-6.356;2023-11-21T07:17:38;5.60;99.90
35531;DHT22;21637;53.352;-6.356;2023-11-21T07:20:05;5.60;99.90
35531;DHT22;21637;53.352;-6.356;2023-11-21T07:22:32;5.60;99.90
35531;DHT22;21637;53.352;-6.356;2023-11-21T07:24:57;5.50;99.90
35531;DHT22;21637;53.352;-6.356;2023-11-21T07:27:23;5.50;99.90
35531;DHT22;21637;53.352;-6.356;2023-11-21T07:29:49;5.40;99.90
35531;DHT22;21637;53.352;-6.356;2023-11-21T07:32:15;5.40;99.90
35531;DHT22;21637;53.352;-6.356;2023-11-21T07:34:41;5.40;99.90
35531;DHT22;21637;53.352;-6.356;2023-11-21T07:37:07;5.30;99.90
35531;DHT22;21637;53.352;-6.356;2023-11-21T07:39:35;5.30;99.90
35531;DHT22;21637;53.352;-6.356;2023-11-21T07:42:01;5.20;99.90
35531;DHT22;21637;53.352;-6.356;2023-11-21T07:44:28;5.20;99.90
35531;DHT22;21637;53.352;-6.356;2023-11-21T07:46:54;5.10;99.90
35531;DHT22;21637;53.352;-6.356;2023-11-21T07:49:26;5.10;99.90
35531;DHT22;21637;53.352;-6.356;2023-11-21T07:51:52;5.00;99.90
35531;DHT22;21637;53.352;-6.356;2023-11-21T07:54:18;5.00;99.90
35531;DHT22;21637;53.352;-6.356;2023-11-21T07:56:43;5.00;99.90
35531;DHT22;21637;53.352;-6.356;2023-11-21T07:59:10;4.90;99.90
35531;DHT22;21637;53.352;-6.356;2023-11-21T08:01:37;4.90;99.90
35531;DHT22;21637;53.352;-6.356;2023-11-21T08:04:03;4.90;99.90
35531;DHT22;21637;53.352;-6.356;2023-11-21T08:06:32;4.90;99.90
35531;DHT22;21637;53.352;-6.356;2023-11-21T08:08:58;4.90;99.90
35531;DHT22;21637;53.352;-6.356;2023-11-21T08:11:24;4.90;99.90
35531;DHT22;21637;53.352;-6.356;2023-11-21T08:13:51;4.90;99.90
35531;DHT22;21637;53.352;-6.356;2023-11-21T08:16:17;4.90;99.90
35531;DHT22;21637;53.352;-6.356;2023-11-21T08:18:43;4.90;99.90
35531;DHT22;21637;53.352;-6.356;2023-11-21T08:21:09;4.90;99.90
35531;DHT22;21637;53.352;-6.356;2023-11-21T08:23:34;4.90;99.90
35531;DHT22;21637;53.352;-6.356;2023-11-21T08:26:00;4.90;99.90
35531;DHT22;21637;53.352;-6.356;2023-11-21T08:28:28;4.90;99.90
35531;DHT22;21637;53.352;-6.356;2023-11-21T08:30:54;4.90;99.90
35531;DHT22;21637;53.352;-6.356;2023-11-21T08:33:20;5.00;99.90
35531;DHT22;21637;53.352;-6.356;2023-11-21T08:35:45;5.00;99.90
35531;DHT22;21637;53.352;-6.356;2023-11-21T08:38:12;5.10;99.90
35531;DHT22;21637;53.352;-6.356;2023-11-21T08:40:38;5.20;99.90
35531;DHT22;21637;53.352;-6.356;2023-11-21T08:43:04;5.30;99.90
35531;DHT22;21637;53.352;-6.356;2023-11-21T08:45:30;5.40;99.90
35531;DHT22;21637;53.352;-6.356;2023-11-21T08:47:56;5.40;99.90
35531;DHT22;21637;53.352;-6.356;2023-11-21T08:50:22;5.40;99.90
35531;DHT22;21637;53.352;-6.356;2023-11-21T08:52:48;5.40;99.90
35531;DHT22;21637;53.352;-6.356;2023-11-21T08:55:14;5.50;99.90
35531;DHT22;21637;53.352;-6.356;2023-11-21T08:57:43;5.60;99.90
35531;DHT22;21637;53.352;-6.356;2023-11-21T09:00:09;5.60;99.90
35531;DHT22;21637;53.352;-6.356;2023-11-21T09:02:43;5.70;99.90
35531;DHT22;21637;53.352;-6.356;2023-11-21T09:05:13;5.70;99.90
35531;DHT22;21637;53.352;-6.356;2023-11-21T09:07:40;5.80;99.90
35531;DHT22;21637;53.352;-6.356;2023-11-21T09:10:07;5.80;99.90
35531;DHT22;21637;53.352;-6.356;2023-11-21T09:12:33;6.00;99.90
35531;DHT22;21637;53.352;-6.356;2023-11-21T09:15:03;6.00;99.90
35531;DHT22;21637;53.352;-6.356;2023-11-21T09:17:30;6.10;99.90
35531;DHT22;21637;53.352;-6.356;2023-11-21T09:19:56;6.20;99.90
35531;DHT22;21637;53.352;-6.356;2023-11-21T09:22:22;6.20;99.90
35531;DHT22;21637;53.352;-6.356;2023-11-21T09:24:50;6.30;99.90
35531;DHT22;21637;53.352;-6.356;2023-11-21T09:27:16;6.30;99.90
35531;DHT22;21637;53.352;-6.356;2023-11-21T09:29:43;6.30;99.90
35531;DHT22;21637;53.352;-6.356;2023-11-21T09:32:09;6.30;99.90
35531;DHT22;21637;53.352;-6.356;2023-11-21T09:34:38;6.40;99.90
35531;DHT22;21637;53.352;-6.356;2023-11-21T09:37:07;6.40;99.90
35531;DHT22;21637;53.352;-6.356;2023-11-21T09:39:33;6.50;99.90
35531;DHT22;21637;53.352;-6.356;2023-11-21T09:42:12;6.50;99.90
35531;DHT22;21637;53.352;-6.356;2023-11-21T09:44:53;6.60;99.90
35531;DHT22;21637;53.352;-6.356;2023-11-21T09:47:22;6.60;99.90
35531;DHT22;21637;53.352;-6.356;2023-11-21T09:49:49;6.60;99.90
35531;DHT22;21637;53.352;-6.356;2023-11-21T09:52:27;6.60;99.90
35531;DHT22;21637;53.352;-6.356;2023-11-21T09:54:54;6.60;99.90
35531;DHT22;21637;53.352;-6.356;2023-11-21T09:57:23;6.70;99.90
35531;DHT22;21637;53.352;-6.356;2023-11-21T09:59:54;6.70;99.90
35531;DHT22;21637;53.352;-6.356;2023-11-21T10:02:28;6.70;99.90
35531;DHT22;21637;53.352;-6.356;2023-11-21T10:04:58;6.70;99.90
35531;DHT22;21637;53.352;-6.356;2023-11-21T10:07:25;6.80;99.90
35531;DHT22;21637;53.352;-6.356;2023-11-21T10:09:53;6.80;99.90
35531;DHT22;21637;53.352;-6.356;2023-11-21T10:12:20;6.90;99.90
35531;DHT22;21637;53.352;-6.356;2023-11-21T10:14:48;6.80;99.90
35531;DHT22;21637;53.352;-6.356;2023-11-21T10:17:15;6.90;99.90
35531;DHT22;21637;53.352;-6.356;2023-11-21T10:19:46;6.90;99.90
35531;DHT22;21637;53.352;-6.356;2023-11-21T10:22:14;7.00;99.90
35531;DHT22;21637;53.352;-6.356;2023-11-21T10:24:40;7.00;99.90
35531;DHT22;21637;53.352;-6.356;2023-11-21T10:27:08;7.00;99.90
35531;DHT22;21637;53.352;-6.356;2023-11-21T10:29:33;7.00;99.90
35531;DHT22;21637;53.352;-6.356;2023-11-21T10:32:02;7.10;99.90
35531;DHT22;21637;53.352;-6.356;2023-11-21T10:34:29;7.10;99.90
35531;DHT22;21637;53.352;-6.356;2023-11-21T10:36:55;7.20;99.90
35531;DHT22;21637;53.352;-6.356;2023-11-21T10:39:23;7.30;99.90
35531;DHT22;21637;53.352;-6.356;2023-11-21T10:41:54;7.30;99.90
35531;DHT22;21637;53.352;-6.356;2023-11-21T10:44:20;7.30;99.90
35531;DHT22;21637;53.352;-6.356;2023-11-21T10:46:51;7.40;99.90
35531;DHT22;21637;53.352;-6.356;2023-11-21T10:49:21;7.40;99.90
35531;DHT22;21637;53.352;-6.356;2023-11-21T10:51:47;7.50;99.90
35531;DHT22;21637;53.352;-6.356;2023-11-21T10:54:20;7.50;99.90
35531;DHT22;21637;53.352;-6.356;2023-11-21T10:56:49;7.60;99.90
35531;DHT22;21637;53.352;-6.356;2023-11-21T10:59:16;7.60;99.90
35531;DHT22;21637;53.352;-6.356;2023-11-21T11:01:45;7.70;99.90
35531;DHT22;21637;53.352;-6.356;2023-11-21T11:04:12;7.80;99.90
35531;DHT22;21637;53.352;-6.356;2023-11-21T11:06:47;7.70;99.90
35531;DHT22;21637;53.352;-6.356;2023-11-21T11:09:17;7.80;99.90
35531;DHT22;21637;53.352;-6.356;2023-11-21T11:11:43;7.90;99.90
35531;DHT22;21637;53.352;-6.356;2023-11-21T11:14:11;8.00;99.90
35531;DHT22;21637;53.352;-6.356;2023-11-21T11:16:39;8.00;99.90
35531;DHT22;21637;53.352;-6.356;2023-11-21T11:19:09;8.00;99.90
35531;DHT22;21637;53.352;-6.356;2023-11-21T11:21:38;8.00;99.90
35531;DHT22;21637;53.352;-6.356;2023-11-21T11:26:56;8.10;99.90
35531;DHT22;21637;53.352;-6.356;2023-11-21T11:32:17;8.20;99.90
35531;DHT22;21637;53.352;-6.356;2023-11-21T11:35:25;8.30;99.90
35531;DHT22;21637;53.352;-6.356;2023-11-21T11:37:54;8.40;99.90
35531;DHT22;21637;53.352;-6.356;2023-11-21T11:40:20;8.50;99.90
35531;DHT22;21637;53.352;-6.356;2023-11-21T11:43:00;8.50;99.90
35531;DHT22;21637;53.352;-6.356;2023-11-21T11:45:33;8.70;99.90
35531;DHT22;21637;53.352;-6.356;2023-11-21T11:48:00;8.80;99.90
35531;DHT22;21637;53.352;-6.356;2023-11-21T11:50:26;8.90;99.90
35531;DHT22;21637;53.352;-6.356;2023-11-21T11:52:53;9.00;99.90
35531;DHT22;21637;53.352;-6.356;2023-11-21T11:55:24;9.00;99.90
35531;DHT22;21637;53.352;-6.356;2023-11-21T11:57:52;9.10;99.90
35531;DHT22;21637;53.352;-6.356;2023-11-21T12:00:42;9.10;99.90
35531;DHT22;21637;53.352;-6.356;2023-11-21T12:03:08;9.20;99.90
35531;DHT22;21637;53.352;-6.356;2023-11-21T12:05:35;9.20;99.90
35531;DHT22;21637;53.352;-6.356;2023-11-21T12:08:06;9.30;99.90
35531;DHT22;21637;53.352;-6.356;2023-11-21T12:10:34;9.30;99.90
35531;DHT22;21637;53.352;-6.356;2023-11-21T12:13:05;9.30;99.90
35531;DHT22;21637;53.352;-6.356;2023-11-21T12:15:36;9.30;99.90
35531;DHT22;21637;53.352;-6.356;2023-11-21T12:18:03;9.30;99.90
35531;DHT22;21637;53.352;-6.356;2023-11-21T12:20:30;9.20;99.90
35531;DHT22;21637;53.352;-6.356;2023-11-21T12:23:00;9.20;99.90
35531;DHT22;21637;53.352;-6.356;2023-11-21T12:25:30;9.20;99.90
35531;DHT22;21637;53.352;-6.356;2023-11-21T12:28:01;9.10;99.90
35531;DHT22;21637;53.352;-6.356;2023-11-21T12:30:33;9.10;99.90
35531;DHT22;21637;53.352;-6.356;2023-11-21T12:33:01;9.10;99.90
35531;DHT22;21637;53.352;-6.356;2023-11-21T12:35:29;9.10;99.90
35531;DHT22;21637;53.352;-6.356;2023-11-21T12:37:56;9.20;99.90
35531;DHT22;21637;53.352;-6.356;2023-11-21T12:40:25;9.20;99.90
35531;DHT22;21637;53.352;-6.356;2023-11-21T12:42:58;9.30;99.90
35531;DHT22;21637;53.352;-6.356;2023-11-21T12:45:28;9.30;99.90
35531;DHT22;21637;53.352;-6.356;2023-11-21T12:48:00;9.30;99.90
35531;DHT22;21637;53.352;-6.356;2023-11-21T12:50:30;9.40;99.90
35531;DHT22;21637;53.352;-6.356;2023-11-21T12:53:08;9.40;99.90
35531;DHT22;21637;53.352;-6.356;2023-11-21T12:55:43;9.40;99.90
35531;DHT22;21637;53.352;-6.356;2023-11-21T12:58:09;9.50;99.90
35531;DHT22;21637;53.352;-6.356;2023-11-21T13:00:45;9.50;99.90
35531;DHT22;21637;53.352;-6.356;2023-11-21T13:03:13;9.50;99.90
35531;DHT22;21637;53.352;-6.356;2023-11-21T13:05:43;9.50;99.90
35531;DHT22;21637;53.352;-6.356;2023-11-21T13:08:14;9.40;99.90
35531;DHT22;21637;53.352;-6.356;2023-11-21T13:10:45;9.40;99.90
35531;DHT22;21637;53.352;-6.356;2023-11-21T13:13:13;9.50;99.90
35531;DHT22;21637;53.352;-6.356;2023-11-21T13:15:53;9.50;99.90
35531;DHT22;21637;53.352;-6.356;2023-11-21T13:18:23;9.50;99.90
35531;DHT22;21637;53.352;-6.356;2023-11-21T13:20:50;9.50;99.90
35531;DHT22;21637;53.352;-6.356;2023-11-21T13:23:16;9.50;99.90
35531;DHT22;21637;53.352;-6.356;2023-11-21T13:25:42;9.50;99.90
35531;DHT22;21637;53.352;-6.356;2023-11-21T13:28:11;9.60;99.90
35531;DHT22;21637;53.352;-6.356;2023-11-21T13:30:38;9.60;99.90
35531;DHT22;21637;53.352;-6.356;2023-11-21T13:33:06;9.60;99.90
35531;DHT22;21637;53.352;-6.356;2023-11-21T13:35:34;9.60;99.90
35531;DHT22;21637;53.352;-6.356;2023-11-21T13:38:11;9.60;99.90
35531;DHT22;21637;53.352;-6.356;2023-11-21T13:40:39;9.60;99.90
35531;DHT22;21637;53.352;-6.356;2023-11-21T13:43:16;9.60;99.90
35531;DHT22;21637;53.352;-6.356;2023-11-21T13:45:47;9.60;99.90
35531;DHT22;21637;53.352;-6.356;2023-11-21T13:48:13;9.60;99.90
35531;DHT22;21637;53.352;-6.356;2023-11-21T13:50:42;9.60;99.90
35531;DHT22;21637;53.352;-6.356;2023-11-21T13:53:23;9.60;99.90
35531;DHT22;21637;53.352;-6.356;2023-11-21T13:55:50;9.60;99.90
35531;DHT22;21637;53.352;-6.356;2023-11-21T13:58:17;9.50;99.90
35531;DHT22;21637;53.352;-6.356;2023-11-21T14:00:50;9.50;99.90
35531;DHT22;21637;53.352;-6.356;2023-11-21T14:03:23;9.50;99.90
35531;DHT22;21637;53.352;-6.356;2023-11-21T14:05:58;9.50;99.90
35531;DHT22;21637;53.352;-6.356;2023-11-21T14:08:26;9.50;99.90
35531;DHT22;21637;53.352;-6.356;2023-11-21T14:10:57;9.50;99.90
35531;DHT22;21637;53.352;-6.356;2023-11-21T14:13:25;9.50;99.90
35531;DHT22;21637;53.352;-6.356;2023-11-21T14:15:51;9.50;99.90
35531;DHT22;21637;53.352;-6.356;2023-11-21T14:18:24;9.50;99.90
35531;DHT22;21637;53.352;-6.356;2023-11-21T14:20:57;9.50;99.90
35531;DHT22;21637;53.352;-6.356;2023-11-21T14:23:22;9.50;99.90
35531;DHT22;21637;53.352;-6.356;2023-11-21T14:25:49;9.50;99.90
35531;DHT22;21637;53.352;-6.356;2023-11-21T14:28:18;9.50;99.90
35531;DHT22;21637;53.352;-6.356;2023-11-21T14:30:48;9.50;99.90
35531;DHT22;21637;53.352;-6.356;2023-11-21T14:33:14;9.50;99.90
35531;DHT22;21637;53.352;-6.356;2023-11-21T14:35:42;9.50;99.90
35531;DHT22;21637;53.352;-6.356;2023-11-21T14:38:08;9.50;99.90
35531;DHT22;21637;53.352;-6.356;2023-11-21T14:40:36;9.50;99.90
35531;DHT22;21637;53.352;-6.356;2023-11-21T14:43:05;9.50;99.90
35531;DHT22;21637;53.352;-6.356;2023-11-21T14:45:32;9.50;99.90
35531;DHT22;21637;53.352;-6.356;2023-11-21T14:47:58;9.50;99.90
35531;DHT22;21637;53.352;-6.356;2023-11-21T14:50:30;9.50;99.90
35531;DHT22;21637;53.352;-6.356;2023-11-21T14:53:11;9.50;99.90
35531;DHT22;21637;53.352;-6.356;2023-11-21T14:55:39;9.50;99.90
35531;DHT22;21637;53.352;-6.356;2023-11-21T14:58:20;9.60;99.90
35531;DHT22;21637;53.352;-6.356;2023-11-21T15:00:58;9.60;99.90
35531;DHT22;21637;53.352;-6.356;2023-11-21T15:03:25;9.60;99.90
35531;DHT22;21637;53.352;-6.356;2023-11-21T15:05:57;9.60;99.90
35531;DHT22;21637;53.352;-6.356;2023-11-21T15:08:23;9.60;99.90
35531;DHT22;21637;53.352;-6.356;2023-11-21T15:10:56;9.60;99.90
35531;DHT22;21637;53.352;-6.356;2023-11-21T15:13:22;9.60;99.90
35531;DHT22;21637;53.352;-6.356;2023-11-21T15:15:50;9.60;99.90
35531;DHT22;21637;53.352;-6.356;2023-11-21T15:18:16;9.60;99.90
35531;DHT22;21637;53.352;-6.356;2023-11-21T15:20:42;9.60;99.90
35531;DHT22;21637;53.352;-6.356;2023-11-21T15:23:09;9.60;99.90
35531;DHT22;21637;53.352;-6.356;2023-11-21T15:25:35;9.50;99.90
35531;DHT22;21637;53.352;-6.356;2023-11-21T15:28:02;9.50;99.90
35531;DHT22;21637;53.352;-6.356;2023-11-21T15:30:28;9.50;99.90
35531;DHT22;21637;53.352;-6.356;2023-11-21T15:32:57;9.50;99.90
35531;DHT22;21637;53.352;-6.356;2023-11-21T15:35:23;9.50;99.90
35531;DHT22;21637;53.352;-6.356;2023-11-21T15:37:49;9.50;99.90